sensor_id;sensor_type;location;lat;lon;timestamp;P1;durP1;ratioP1;P2;durP2;ratioP2
6878;SDS011;3478;51.462;7.338;2024-02-21T00:02:30;24.07;;;10.00;;
6878;SDS011;3478;51.462;7.338;2024-02-21T00:07:33;17.70;;;8.10;;
6878;SDS011;3478;51.462;7.338;2024-02-21T00:12:36;24.63;;;10.93;;
6878;SDS011;3478;51.462;7.338;2024-02-21T00:17:39;17.87;;;9.00;;
6878;SDS011;3478;51.462;7.338;2024-02-21T00:22:42;20.70;;;9.00;;
6878;SDS011;3478;51.462;7.338;2024-02-21T00:27:53;28.17;;;9.00;;
6878;SDS011;3478;51.462;7.338;2024-02-21T00:32:55;25.93;;;9.97;;
6878;SDS011;3478;51.462;7.338;2024-02-21T00:37:57;23.80;;;9.90;;
6878;SDS011;3478;51.462;7.338;2024-02-21T00:43:03;24.17;;;10.27;;
6878;SDS011;3478;51.462;7.338;2024-02-21T00:48:05;22.63;;;9.43;;
6878;SDS011;3478;51.462;7.338;2024-02-21T00:53:07;18.57;;;10.07;;
6878;SDS011;3478;51.462;7.338;2024-02-21T00:58:11;18.20;;;9.57;;
6878;SDS011;3478;51.462;7.338;2024-02-21T01:03:13;18.87;;;9.17;;
6878;SDS011;3478;51.462;7.338;2024-02-21T01:08:15;19.13;;;9.43;;
6878;SDS011;3478;51.462;7.338;2024-02-21T01:13:20;21.30;;;11.03;;
6878;SDS011;3478;51.462;7.338;2024-02-21T01:18:23;20.43;;;10.07;;
6878;SDS011;3478;51.462;7.338;2024-02-21T01:23:25;21.87;;;9.83;;
6878;SDS011;3478;51.462;7.338;2024-02-21T01:28:29;24.63;;;11.63;;
6878;SDS011;3478;51.462;7.338;2024-02-21T01:33:31;22.63;;;11.37;;
6878;SDS011;3478;51.462;7.338;2024-02-21T01:38:35;18.50;;;11.10;;
6878;SDS011;3478;51.462;7.338;2024-02-21T01:43:38;22.90;;;10.83;;
6878;SDS011;3478;51.462;7.338;2024-02-21T01:48:40;21.70;;;10.87;;
6878;SDS011;3478;51.462;7.338;2024-02-21T01:53:42;15.80;;;10.63;;
6878;SDS011;3478;51.462;7.338;2024-02-21T01:58:47;20.77;;;10.90;;
6878;SDS011;3478;51.462;7.338;2024-02-21T02:03:50;21.20;;;10.30;;
6878;SDS011;3478;51.462;7.338;2024-02-21T02:08:53;20.77;;;9.13;;
6878;SDS011;3478;51.462;7.338;2024-02-21T02:13:56;23.20;;;10.80;;
6878;SDS011;3478;51.462;7.338;2024-02-21T02:18:58;26.23;;;11.33;;
6878;SDS011;3478;51.462;7.338;2024-02-21T02:24:02;29.60;;;10.20;;
6878;SDS011;3478;51.462;7.338;2024-02-21T02:29:05;22.90;;;10.37;;
6878;SDS011;3478;51.462;7.338;2024-02-21T02:34:07;18.40;;;10.37;;
6878;SDS011;3478;51.462;7.338;2024-02-21T02:39:10;22.43;;;10.87;;
6878;SDS011;3478;51.462;7.338;2024-02-21T02:44:14;13.57;;;9.00;;
6878;SDS011;3478;51.462;7.338;2024-02-21T02:49:16;20.00;;;9.20;;
6878;SDS011;3478;51.462;7.338;2024-02-21T02:54:20;21.87;;;10.93;;
6878;SDS011;3478;51.462;7.338;2024-02-21T02:59:22;21.50;;;11.63;;
6878;SDS011;3478;51.462;7.338;2024-02-21T03:04:24;16.90;;;9.07;;
6878;SDS011;3478;51.462;7.338;2024-02-21T03:09:28;20.50;;;10.57;;
6878;SDS011;3478;51.462;7.338;2024-02-21T03:14:29;18.00;;;8.83;;
6878;SDS011;3478;51.462;7.338;2024-02-21T03:19:31;20.70;;;8.83;;
6878;SDS011;3478;51.462;7.338;2024-02-21T03:24:36;20.67;;;9.67;;
6878;SDS011;3478;51.462;7.338;2024-02-21T03:29:38;20.33;;;8.37;;
6878;SDS011;3478;51.462;7.338;2024-02-21T03:34:40;14.13;;;8.40;;
6878;SDS011;3478;51.462;7.338;2024-02-21T03:39:43;21.10;;;10.40;;
6878;SDS011;3478;51.462;7.338;2024-02-21T03:44:45;22.83;;;9.23;;
6878;SDS011;3478;51.462;7.338;2024-02-21T03:49:47;12.93;;;8.80;;
6878;SDS011;3478;51.462;7.338;2024-02-21T03:54:51;19.27;;;9.80;;
6878;SDS011;3478;51.462;7.338;2024-02-21T03:59:55;26.17;;;9.07;;
6878;SDS011;3478;51.462;7.338;2024-02-21T04:04:57;18.10;;;9.60;;
6878;SDS011;3478;51.462;7.338;2024-02-21T04:10:00;16.23;;;7.90;;
6878;SDS011;3478;51.462;7.338;2024-02-21T04:15:02;16.20;;;8.50;;
6878;SDS011;3478;51.462;7.338;2024-02-21T04:20:06;16.87;;;9.33;;
6878;SDS011;3478;51.462;7.338;2024-02-21T04:25:16;17.30;;;10.77;;
6878;SDS011;3478;51.462;7.338;2024-02-21T04:30:18;14.90;;;8.40;;
6878;SDS011;3478;51.462;7.338;2024-02-21T04:35:20;14.77;;;8.70;;
6878;SDS011;3478;51.462;7.338;2024-02-21T04:40:23;18.43;;;8.00;;
6878;SDS011;3478;51.462;7.338;2024-02-21T04:45:25;16.47;;;7.77;;
6878;SDS011;3478;51.462;7.338;2024-02-21T04:50:27;25.13;;;9.53;;
6878;SDS011;3478;51.462;7.338;2024-02-21T04:55:30;25.07;;;7.80;;
6878;SDS011;3478;51.462;7.338;2024-02-21T05:00:32;16.00;;;7.33;;
6878;SDS011;3478;51.462;7.338;2024-02-21T05:05:34;18.23;;;7.97;;
6878;SDS011;3478;51.462;7.338;2024-02-21T05:10:37;13.57;;;7.43;;
6878;SDS011;3478;51.462;7.338;2024-02-21T05:15:39;13.23;;;7.53;;
6878;SDS011;3478;51.462;7.338;2024-02-21T05:20:41;17.70;;;8.70;;
6878;SDS011;3478;51.462;7.338;2024-02-21T05:25:44;9.83;;;7.87;;
6878;SDS011;3478;51.462;7.338;2024-02-21T05:30:46;13.70;;;7.97;;
6878;SDS011;3478;51.462;7.338;2024-02-21T05:35:48;8.73;;;6.10;;
6878;SDS011;3478;51.462;7.338;2024-02-21T05:40:52;19.80;;;7.40;;
6878;SDS011;3478;51.462;7.338;2024-02-21T05:45:54;10.93;;;7.07;;
6878;SDS011;3478;51.462;7.338;2024-02-21T05:50:55;17.73;;;6.37;;
6878;SDS011;3478;51.462;7.338;2024-02-21T05:55:59;15.63;;;6.50;;
6878;SDS011;3478;51.462;7.338;2024-02-21T06:01:01;14.60;;;6.30;;
6878;SDS011;3478;51.462;7.338;2024-02-21T06:06:03;10.73;;;7.40;;
6878;SDS011;3478;51.462;7.338;2024-02-21T06:11:07;12.63;;;7.83;;
6878;SDS011;3478;51.462;7.338;2024-02-21T06:16:09;9.80;;;5.70;;
6878;SDS011;3478;51.462;7.338;2024-02-21T06:21:11;13.33;;;5.83;;
6878;SDS011;3478;51.462;7.338;2024-02-21T06:26:14;16.17;;;5.73;;
6878;SDS011;3478;51.462;7.338;2024-02-21T06:31:16;14.13;;;5.70;;
6878;SDS011;3478;51.462;7.338;2024-02-21T06:36:18;9.03;;;5.50;;
6878;SDS011;3478;51.462;7.338;2024-02-21T06:41:22;6.10;;;4.40;;
6878;SDS011;3478;51.462;7.338;2024-02-21T06:46:24;6.50;;;4.43;;
6878;SDS011;3478;51.462;7.338;2024-02-21T06:51:26;4.90;;;4.50;;
6878;SDS011;3478;51.462;7.338;2024-02-21T06:56:30;10.43;;;4.60;;
6878;SDS011;3478;51.462;7.338;2024-02-21T07:01:31;9.03;;;4.40;;
6878;SDS011;3478;51.462;7.338;2024-02-21T07:06:33;4.77;;;3.87;;
6878;SDS011;3478;51.462;7.338;2024-02-21T07:11:37;20.90;;;11.67;;
6878;SDS011;3478;51.462;7.338;2024-02-21T07:16:39;6.73;;;4.70;;
6878;SDS011;3478;51.462;7.338;2024-02-21T07:21:40;7.70;;;5.10;;
6878;SDS011;3478;51.462;7.338;2024-02-21T07:26:44;10.40;;;3.93;;
6878;SDS011;3478;51.462;7.338;2024-02-21T07:31:45;8.27;;;4.20;;
6878;SDS011;3478;51.462;7.338;2024-02-21T07:36:48;8.83;;;3.83;;
6878;SDS011;3478;51.462;7.338;2024-02-21T07:41:52;8.20;;;4.13;;
6878;SDS011;3478;51.462;7.338;2024-02-21T07:46:54;11.63;;;4.57;;
6878;SDS011;3478;51.462;7.338;2024-02-21T07:51:55;8.00;;;4.40;;
6878;SDS011;3478;51.462;7.338;2024-02-21T07:56:59;11.60;;;4.33;;
6878;SDS011;3478;51.462;7.338;2024-02-21T08:02:01;10.07;;;4.47;;
6878;SDS011;3478;51.462;7.338;2024-02-21T08:07:06;12.77;;;5.07;;
6878;SDS011;3478;51.462;7.338;2024-02-21T08:12:10;10.80;;;4.70;;
6878;SDS011;3478;51.462;7.338;2024-02-21T08:17:11;10.33;;;5.07;;
6878;SDS011;3478;51.462;7.338;2024-02-21T08:22:13;7.80;;;4.00;;
6878;SDS011;3478;51.462;7.338;2024-02-21T08:27:16;7.83;;;5.50;;
6878;SDS011;3478;51.462;7.338;2024-02-21T08:32:18;5.90;;;3.67;;
6878;SDS011;3478;51.462;7.338;2024-02-21T08:37:20;5.97;;;3.70;;
6878;SDS011;3478;51.462;7.338;2024-02-21T08:42:23;5.40;;;3.20;;
6878;SDS011;3478;51.462;7.338;2024-02-21T08:47:25;3.17;;;2.87;;
6878;SDS011;3478;51.462;7.338;2024-02-21T08:52:27;5.93;;;3.00;;
6878;SDS011;3478;51.462;7.338;2024-02-21T08:57:30;7.60;;;3.33;;
6878;SDS011;3478;51.462;7.338;2024-02-21T09:02:36;9.87;;;3.77;;
6878;SDS011;3478;51.462;7.338;2024-02-21T09:07:39;11.23;;;5.43;;
6878;SDS011;3478;51.462;7.338;2024-02-21T09:12:42;12.53;;;6.03;;
6878;SDS011;3478;51.462;7.338;2024-02-21T09:17:44;8.60;;;5.20;;
6878;SDS011;3478;51.462;7.338;2024-02-21T09:22:46;11.20;;;5.57;;
6878;SDS011;3478;51.462;7.338;2024-02-21T09:27:49;15.23;;;6.47;;
6878;SDS011;3478;51.462;7.338;2024-02-21T09:32:52;16.13;;;6.57;;
6878;SDS011;3478;51.462;7.338;2024-02-21T09:37:54;16.93;;;9.30;;
6878;SDS011;3478;51.462;7.338;2024-02-21T09:42:59;12.80;;;8.17;;
6878;SDS011;3478;51.462;7.338;2024-02-21T09:53:29;18.23;;;10.97;;
6878;SDS011;3478;51.462;7.338;2024-02-21T09:58:34;17.23;;;8.40;;
6878;SDS011;3478;51.462;7.338;2024-02-21T10:03:37;17.37;;;8.70;;
6878;SDS011;3478;51.462;7.338;2024-02-21T10:08:39;16.27;;;8.50;;
6878;SDS011;3478;51.462;7.338;2024-02-21T10:13:43;11.60;;;9.10;;
6878;SDS011;3478;51.462;7.338;2024-02-21T10:18:45;16.50;;;8.73;;
6878;SDS011;3478;51.462;7.338;2024-02-21T10:23:48;23.67;;;9.07;;
6878;SDS011;3478;51.462;7.338;2024-02-21T10:28:52;8.40;;;7.40;;
6878;SDS011;3478;51.462;7.338;2024-02-21T10:33:55;13.10;;;7.93;;
6878;SDS011;3478;51.462;7.338;2024-02-21T10:38:57;18.97;;;7.73;;
6878;SDS011;3478;51.462;7.338;2024-02-21T10:44:01;13.90;;;7.67;;
6878;SDS011;3478;51.462;7.338;2024-02-21T10:49:07;11.07;;;5.53;;
6878;SDS011;3478;51.462;7.338;2024-02-21T10:54:18;10.77;;;5.37;;
6878;SDS011;3478;51.462;7.338;2024-02-21T10:59:31;10.27;;;5.67;;
6878;SDS011;3478;51.462;7.338;2024-02-21T11:04:36;7.90;;;5.47;;
6878;SDS011;3478;51.462;7.338;2024-02-21T11:09:50;11.53;;;6.37;;
6878;SDS011;3478;51.462;7.338;2024-02-21T11:14:54;8.20;;;6.40;;
6878;SDS011;3478;51.462;7.338;2024-02-21T11:20:12;7.20;;;5.50;;
6878;SDS011;3478;51.462;7.338;2024-02-21T11:25:21;10.00;;;6.70;;
6878;SDS011;3478;51.462;7.338;2024-02-21T11:30:29;7.30;;;5.40;;
6878;SDS011;3478;51.462;7.338;2024-02-21T11:35:33;10.33;;;5.43;;
6878;SDS011;3478;51.462;7.338;2024-02-21T11:40:38;14.50;;;5.90;;
6878;SDS011;3478;51.462;7.338;2024-02-21T11:45:42;10.07;;;5.53;;
6878;SDS011;3478;51.462;7.338;2024-02-21T11:50:52;8.00;;;5.57;;
6878;SDS011;3478;51.462;7.338;2024-02-21T11:55:54;9.87;;;5.40;;
6878;SDS011;3478;51.462;7.338;2024-02-21T12:00:58;7.20;;;4.10;;
6878;SDS011;3478;51.462;7.338;2024-02-21T12:06:03;10.50;;;4.80;;
6878;SDS011;3478;51.462;7.338;2024-02-21T12:11:15;7.50;;;3.93;;
6878;SDS011;3478;51.462;7.338;2024-02-21T12:16:19;7.73;;;3.77;;
6878;SDS011;3478;51.462;7.338;2024-02-21T12:21:25;4.73;;;2.90;;
6878;SDS011;3478;51.462;7.338;2024-02-21T12:26:33;6.20;;;3.50;;
6878;SDS011;3478;51.462;7.338;2024-02-21T12:31:38;8.73;;;2.93;;
6878;SDS011;3478;51.462;7.338;2024-02-21T12:36:43;7.50;;;2.60;;
6878;SDS011;3478;51.462;7.338;2024-02-21T12:41:47;8.83;;;2.70;;
6878;SDS011;3478;51.462;7.338;2024-02-21T12:46:50;4.83;;;2.57;;
6878;SDS011;3478;51.462;7.338;2024-02-21T12:51:54;5.40;;;2.60;;
6878;SDS011;3478;51.462;7.338;2024-02-21T12:56:56;4.37;;;2.97;;
6878;SDS011;3478;51.462;7.338;2024-02-21T13:02:04;4.53;;;2.43;;
6878;SDS011;3478;51.462;7.338;2024-02-21T13:07:06;7.40;;;2.33;;
6878;SDS011;3478;51.462;7.338;2024-02-21T13:12:09;4.53;;;2.30;;
6878;SDS011;3478;51.462;7.338;2024-02-21T13:17:22;9.37;;;2.87;;
6878;SDS011;3478;51.462;7.338;2024-02-21T13:22:25;10.93;;;3.27;;
6878;SDS011;3478;51.462;7.338;2024-02-21T13:27:27;3.30;;;2.73;;
6878;SDS011;3478;51.462;7.338;2024-02-21T13:32:30;11.73;;;3.77;;
6878;SDS011;3478;51.462;7.338;2024-02-21T13:37:32;5.53;;;3.00;;
6878;SDS011;3478;51.462;7.338;2024-02-21T13:42:34;8.37;;;3.20;;
6878;SDS011;3478;51.462;7.338;2024-02-21T13:47:38;6.43;;;3.40;;
6878;SDS011;3478;51.462;7.338;2024-02-21T13:52:40;10.63;;;2.60;;
6878;SDS011;3478;51.462;7.338;2024-02-21T13:57:43;5.53;;;3.80;;
6878;SDS011;3478;51.462;7.338;2024-02-21T14:02:46;6.20;;;2.30;;
6878;SDS011;3478;51.462;7.338;2024-02-21T14:07:48;5.13;;;2.70;;
6878;SDS011;3478;51.462;7.338;2024-02-21T14:12:50;7.37;;;2.83;;
6878;SDS011;3478;51.462;7.338;2024-02-21T14:17:54;5.23;;;2.60;;
6878;SDS011;3478;51.462;7.338;2024-02-21T14:22:56;4.47;;;3.30;;
6878;SDS011;3478;51.462;7.338;2024-02-21T14:28:02;4.93;;;2.50;;
6878;SDS011;3478;51.462;7.338;2024-02-21T14:33:06;4.90;;;2.73;;
6878;SDS011;3478;51.462;7.338;2024-02-21T14:38:08;11.00;;;2.50;;
6878;SDS011;3478;51.462;7.338;2024-02-21T14:43:10;7.77;;;3.37;;
6878;SDS011;3478;51.462;7.338;2024-02-21T14:48:14;5.53;;;2.53;;
6878;SDS011;3478;51.462;7.338;2024-02-21T14:53:16;6.37;;;2.83;;
6878;SDS011;3478;51.462;7.338;2024-02-21T14:58:18;6.87;;;3.50;;
6878;SDS011;3478;51.462;7.338;2024-02-21T15:03:21;6.03;;;2.07;;
6878;SDS011;3478;51.462;7.338;2024-02-21T15:08:27;5.33;;;2.53;;
6878;SDS011;3478;51.462;7.338;2024-02-21T15:13:29;7.33;;;2.37;;
6878;SDS011;3478;51.462;7.338;2024-02-21T15:18:33;7.23;;;3.00;;
6878;SDS011;3478;51.462;7.338;2024-02-21T15:23:38;6.67;;;3.10;;
6878;SDS011;3478;51.462;7.338;2024-02-21T15:28:40;6.07;;;2.80;;
6878;SDS011;3478;51.462;7.338;2024-02-21T15:34:09;3.10;;;2.63;;
6878;SDS011;3478;51.462;7.338;2024-02-21T15:39:11;4.77;;;2.17;;
6878;SDS011;3478;51.462;7.338;2024-02-21T15:44:13;7.57;;;2.80;;
6878;SDS011;3478;51.462;7.338;2024-02-21T15:49:21;4.27;;;2.40;;
6878;SDS011;3478;51.462;7.338;2024-02-21T15:54:23;7.70;;;2.50;;
6878;SDS011;3478;51.462;7.338;2024-02-21T15:59:27;4.10;;;2.60;;
6878;SDS011;3478;51.462;7.338;2024-02-21T16:04:33;3.23;;;2.30;;
6878;SDS011;3478;51.462;7.338;2024-02-21T16:09:34;8.97;;;2.23;;
6878;SDS011;3478;51.462;7.338;2024-02-21T16:14:36;8.07;;;2.40;;
6878;SDS011;3478;51.462;7.338;2024-02-21T16:19:40;4.10;;;1.60;;
6878;SDS011;3478;51.462;7.338;2024-02-21T16:24:42;7.33;;;1.87;;
6878;SDS011;3478;51.462;7.338;2024-02-21T16:29:43;6.20;;;2.10;;
6878;SDS011;3478;51.462;7.338;2024-02-21T16:34:47;5.03;;;1.53;;
6878;SDS011;3478;51.462;7.338;2024-02-21T16:39:49;4.10;;;1.60;;
6878;SDS011;3478;51.462;7.338;2024-02-21T16:44:52;9.17;;;2.00;;
6878;SDS011;3478;51.462;7.338;2024-02-21T16:49:56;4.40;;;1.50;;
6878;SDS011;3478;51.462;7.338;2024-02-21T16:54:58;4.20;;;1.70;;
6878;SDS011;3478;51.462;7.338;2024-02-21T17:00:00;2.33;;;1.70;;
6878;SDS011;3478;51.462;7.338;2024-02-21T17:05:06;2.93;;;1.83;;
6878;SDS011;3478;51.462;7.338;2024-02-21T17:10:09;5.50;;;2.20;;
6878;SDS011;3478;51.462;7.338;2024-02-21T17:15:13;4.07;;;3.77;;
6878;SDS011;3478;51.462;7.338;2024-02-21T17:20:20;3.03;;;2.40;;
6878;SDS011;3478;51.462;7.338;2024-02-21T17:25:44;6.53;;;2.63;;
6878;SDS011;3478;51.462;7.338;2024-02-21T17:30:49;6.10;;;2.40;;
6878;SDS011;3478;51.462;7.338;2024-02-21T17:35:52;4.40;;;1.77;;
6878;SDS011;3478;51.462;7.338;2024-02-21T17:40:54;4.80;;;2.33;;
6878;SDS011;3478;51.462;7.338;2024-02-21T17:45:59;2.60;;;2.10;;
6878;SDS011;3478;51.462;7.338;2024-02-21T17:51:03;8.43;;;2.33;;
6878;SDS011;3478;51.462;7.338;2024-02-21T17:56:05;4.27;;;2.20;;
6878;SDS011;3478;51.462;7.338;2024-02-21T18:01:07;6.73;;;2.10;;
6878;SDS011;3478;51.462;7.338;2024-02-21T18:06:11;3.97;;;2.10;;
6878;SDS011;3478;51.462;7.338;2024-02-21T18:11:13;3.03;;;1.77;;
6878;SDS011;3478;51.462;7.338;2024-02-21T18:16:15;6.03;;;1.67;;
6878;SDS011;3478;51.462;7.338;2024-02-21T18:21:19;3.73;;;1.80;;
6878;SDS011;3478;51.462;7.338;2024-02-21T18:26:21;5.40;;;1.40;;
6878;SDS011;3478;51.462;7.338;2024-02-21T18:31:22;3.90;;;2.20;;
6878;SDS011;3478;51.462;7.338;2024-02-21T18:36:26;5.37;;;2.50;;
6878;SDS011;3478;51.462;7.338;2024-02-21T18:41:28;5.93;;;2.20;;
6878;SDS011;3478;51.462;7.338;2024-02-21T18:46:29;3.27;;;1.70;;
6878;SDS011;3478;51.462;7.338;2024-02-21T18:51:33;6.37;;;1.93;;
6878;SDS011;3478;51.462;7.338;2024-02-21T18:56:35;5.47;;;2.00;;
6878;SDS011;3478;51.462;7.338;2024-02-21T19:01:37;4.13;;;2.10;;
6878;SDS011;3478;51.462;7.338;2024-02-21T19:06:40;14.17;;;2.80;;
6878;SDS011;3478;51.462;7.338;2024-02-21T19:11:43;3.50;;;2.23;;
6878;SDS011;3478;51.462;7.338;2024-02-21T19:16:45;4.90;;;2.00;;
6878;SDS011;3478;51.462;7.338;2024-02-21T19:21:48;7.00;;;2.13;;
6878;SDS011;3478;51.462;7.338;2024-02-21T19:26:50;3.10;;;2.13;;
6878;SDS011;3478;51.462;7.338;2024-02-21T19:31:52;4.87;;;2.43;;
6878;SDS011;3478;51.462;7.338;2024-02-21T19:36:56;5.50;;;2.10;;
6878;SDS011;3478;51.462;7.338;2024-02-21T19:41:58;6.33;;;2.70;;
6878;SDS011;3478;51.462;7.338;2024-02-21T19:47:00;4.10;;;2.80;;
6878;SDS011;3478;51.462;7.338;2024-02-21T19:52:05;6.53;;;3.10;;
6878;SDS011;3478;51.462;7.338;2024-02-21T19:57:07;2.63;;;2.40;;
6878;SDS011;3478;51.462;7.338;2024-02-21T20:02:09;4.80;;;2.40;;
6878;SDS011;3478;51.462;7.338;2024-02-21T20:07:13;5.40;;;2.43;;
6878;SDS011;3478;51.462;7.338;2024-02-21T20:12:15;3.60;;;3.27;;
6878;SDS011;3478;51.462;7.338;2024-02-21T20:17:17;6.93;;;3.00;;
6878;SDS011;3478;51.462;7.338;2024-02-21T20:22:21;2.57;;;2.23;;
6878;SDS011;3478;51.462;7.338;2024-02-21T20:27:23;3.60;;;2.53;;
6878;SDS011;3478;51.462;7.338;2024-02-21T20:32:25;5.63;;;3.10;;
6878;SDS011;3478;51.462;7.338;2024-02-21T20:37:28;4.63;;;3.53;;
6878;SDS011;3478;51.462;7.338;2024-02-21T20:42:30;4.80;;;2.80;;
6878;SDS011;3478;51.462;7.338;2024-02-21T20:47:33;5.47;;;3.03;;
6878;SDS011;3478;51.462;7.338;2024-02-21T20:52:37;4.37;;;2.70;;
6878;SDS011;3478;51.462;7.338;2024-02-21T20:57:39;6.00;;;2.97;;
6878;SDS011;3478;51.462;7.338;2024-02-21T21:02:41;4.43;;;3.73;;
6878;SDS011;3478;51.462;7.338;2024-02-21T21:07:45;5.00;;;3.47;;
6878;SDS011;3478;51.462;7.338;2024-02-21T21:12:47;6.73;;;3.40;;
6878;SDS011;3478;51.462;7.338;2024-02-21T21:17:49;5.93;;;3.67;;
6878;SDS011;3478;51.462;7.338;2024-02-21T21:22:54;5.77;;;4.00;;
6878;SDS011;3478;51.462;7.338;2024-02-21T21:27:57;11.00;;;3.77;;
6878;SDS011;3478;51.462;7.338;2024-02-21T21:32:59;5.73;;;3.30;;
6878;SDS011;3478;51.462;7.338;2024-02-21T21:38:02;3.97;;;3.10;;
6878;SDS011;3478;51.462;7.338;2024-02-21T21:43:05;4.27;;;3.30;;
6878;SDS011;3478;51.462;7.338;2024-02-21T21:48:07;5.10;;;3.20;;
6878;SDS011;3478;51.462;7.338;2024-02-21T21:53:10;4.50;;;3.70;;
6878;SDS011;3478;51.462;7.338;2024-02-21T21:58:12;3.67;;;3.33;;
6878;SDS011;3478;51.462;7.338;2024-02-21T22:03:14;3.37;;;3.17;;
6878;SDS011;3478;51.462;7.338;2024-02-21T22:08:18;3.93;;;3.13;;
6878;SDS011;3478;51.462;7.338;2024-02-21T22:13:20;3.97;;;3.50;;
6878;SDS011;3478;51.462;7.338;2024-02-21T22:18:22;4.63;;;3.00;;
6878;SDS011;3478;51.462;7.338;2024-02-21T22:23:25;3.53;;;3.27;;
6878;SDS011;3478;51.462;7.338;2024-02-21T22:28:27;5.27;;;4.00;;
6878;SDS011;3478;51.462;7.338;2024-02-21T22:33:29;5.27;;;4.17;;
6878;SDS011;3478;51.462;7.338;2024-02-21T22:38:32;5.53;;;4.60;;
6878;SDS011;3478;51.462;7.338;2024-02-21T22:43:34;5.10;;;3.60;;
6878;SDS011;3478;51.462;7.338;2024-02-21T22:48:36;4.13;;;3.50;;
6878;SDS011;3478;51.462;7.338;2024-02-21T22:53:41;3.47;;;2.90;;
6878;SDS011;3478;51.462;7.338;2024-02-21T22:58:43;3.63;;;2.80;;
6878;SDS011;3478;51.462;7.338;2024-02-21T23:03:45;2.63;;;2.33;;
6878;SDS011;3478;51.462;7.338;2024-02-21T23:08:48;3.50;;;3.20;;
6878;SDS011;3478;51.462;7.338;2024-02-21T23:13:50;3.00;;;2.70;;
6878;SDS011;3478;51.462;7.338;2024-02-21T23:18:52;2.90;;;2.60;;
6878;SDS011;3478;51.462;7.338;2024-02-21T23:23:56;5.27;;;2.90;;
6878;SDS011;3478;51.462;7.338;2024-02-21T23:28:58;3.50;;;2.00;;
6878;SDS011;3478;51.462;7.338;2024-02-21T23:34:00;3.70;;;2.00;;
6878;SDS011;3478;51.462;7.338;2024-02-21T23:39:03;3.30;;;1.60;;
6878;SDS011;3478;51.462;7.338;2024-02-21T23:44:06;2.40;;;1.10;;
6878;SDS011;3478;51.462;7.338;2024-02-21T23:49:08;2.60;;;0.80;;
6878;SDS011;3478;51.462;7.338;2024-02-21T23:54:11;1.57;;;0.77;;
6878;SDS011;3478;51.462;7.338;2024-02-21T23:59:13;4.30;;;0.80;;
